createdAt,value
2018-11-20T00:00:17.274Z,41.93
2018-11-20T00:03:02.817Z,46.30
2018-11-20T00:05:52.051Z,38.43
2018-11-20T00:08:35.637Z,43.30
2018-11-20T00:11:24.056Z,45.27
2018-11-20T00:14:26.658Z,38.40
2018-11-20T00:17:09.140Z,41.83
2018-11-20T00:19:53.671Z,40.80
2018-11-20T00:22:44.091Z,46.37
2018-11-20T00:25:33.353Z,42.60
2018-11-20T00:28:26.496Z,39.97
2018-11-20T00:31:28.908Z,45.70
2018-11-20T00:34:18.063Z,50.57
2018-11-20T00:37:17.277Z,48.17
2018-11-20T00:40:06.377Z,44.90
2018-11-20T00:42:53.316Z,44.07
2018-11-20T00:45:52.999Z,44.53
2018-11-20T00:48:44.789Z,39.23
2018-11-20T00:51:27.800Z,38.07
2018-11-20T00:54:17.051Z,38.87
2018-11-20T00:57:16.593Z,39.53
2018-11-20T01:00:16.265Z,42.13
2018-11-20T01:03:09.625Z,44.47
2018-11-20T01:06:04.804Z,48.83
2018-11-20T01:09:07.465Z,42.87
2018-11-20T01:11:54.825Z,40.33
2018-11-20T01:14:33.316Z,46.80
2018-11-20T01:17:22.519Z,40.60
2018-11-20T01:20:11.707Z,39.70
2018-11-20T01:22:58.166Z,41.90
2018-11-20T01:25:47.105Z,42.77
2018-11-20T01:28:31.767Z,41.60
2018-11-20T01:31:25.068Z,43.63
2018-11-20T01:34:14.301Z,37.77
2018-11-20T01:37:07.354Z,36.70
2018-11-20T01:40:06.593Z,47.90
2018-11-20T01:43:12.407Z,44.47
2018-11-20T01:46:39.248Z,41.53
2018-11-20T01:49:31.129Z,36.40
2018-11-20T01:52:20.357Z,37.50
2018-11-20T01:55:12.305Z,37.03
2018-11-20T01:57:57.432Z,39.00
2018-11-20T02:00:44.079Z,33.87
2018-11-20T02:03:31.999Z,38.43
2018-11-20T02:06:19.861Z,34.30
2018-11-20T02:09:13.070Z,34.33
2018-11-20T02:12:05.340Z,32.90
2018-11-20T02:14:46.186Z,37.20
2018-11-20T02:17:45.465Z,39.07
2018-11-20T02:20:46.960Z,32.40
2018-11-20T02:23:41.932Z,40.33
2018-11-20T02:26:29.849Z,36.17
2018-11-20T02:29:18.353Z,34.57
2018-11-20T02:32:06.202Z,32.10
2018-11-20T02:35:10.676Z,33.80
2018-11-20T02:38:05.986Z,33.07
2018-11-20T02:41:01.165Z,32.73
2018-11-20T02:43:50.400Z,30.23
2018-11-20T02:46:38.847Z,39.87
2018-11-20T02:49:28.072Z,32.30
2018-11-20T02:52:16.002Z,27.60
2018-11-20T02:55:08.201Z,34.13
2018-11-20T02:58:06.990Z,34.37
2018-11-20T03:01:05.526Z,35.03
2018-11-20T03:03:54.532Z,33.93
2018-11-20T03:06:58.438Z,32.37
2018-11-20T03:09:52.925Z,29.87
2018-11-20T03:12:46.600Z,35.33
2018-11-20T03:15:35.860Z,34.13
2018-11-20T03:18:32.600Z,30.67
2018-11-20T03:21:11.103Z,31.00
2018-11-20T03:24:12.372Z,31.80
2018-11-20T03:26:54.788Z,32.53
2018-11-20T03:30:49.294Z,31.57
2018-11-20T03:33:40.165Z,31.30
2018-11-20T03:36:25.676Z,31.63
2018-11-20T03:39:13.824Z,26.83
2018-11-20T03:41:54.966Z,28.03
2018-11-20T03:44:43.079Z,27.00
2018-11-20T03:47:41.375Z,29.23
2018-11-20T03:50:30.546Z,28.63
2018-11-20T03:53:18.484Z,26.87
2018-11-20T03:56:01.018Z,29.10
2018-11-20T03:58:51.208Z,28.07
2018-11-20T04:01:43.609Z,29.17
2018-11-20T04:04:31.443Z,30.50
2018-11-20T04:07:32.786Z,29.37
2018-11-20T04:10:20.655Z,27.73
2018-11-20T04:13:00.221Z,23.53
2018-11-20T04:15:52.323Z,30.23
2018-11-20T04:18:44.458Z,29.43
2018-11-20T04:21:33.632Z,25.10
2018-11-20T04:24:26.395Z,31.43
2018-11-20T04:27:15.601Z,24.90
2018-11-20T04:30:05.461Z,30.67
2018-11-20T04:32:40.682Z,29.07
2018-11-20T04:35:37.055Z,26.50
2018-11-20T04:38:29.056Z,29.10
2018-11-20T04:41:24.429Z,26.23
2018-11-20T04:44:28.748Z,29.93
2018-11-20T04:47:16.983Z,22.67
2018-11-20T04:49:57.285Z,26.33
2018-11-20T04:52:49.090Z,21.40
2018-11-20T04:55:36.828Z,22.53
2018-11-20T04:58:31.896Z,25.97
2018-11-20T05:01:26.863Z,26.33
2018-11-20T05:04:13.257Z,25.23
2018-11-20T05:06:49.591Z,28.10
2018-11-20T05:09:56.809Z,24.50
2018-11-20T05:12:50.552Z,27.93
2018-11-20T05:15:38.117Z,26.57
2018-11-20T05:18:22.031Z,30.63
2018-11-20T05:21:26.623Z,24.77
2018-11-20T05:24:14.614Z,27.67
2018-11-20T05:27:15.869Z,27.60
2018-11-20T05:30:03.824Z,31.77
2018-11-20T05:33:08.084Z,33.27
2018-11-20T05:36:12.264Z,34.90
2018-11-20T05:39:00.617Z,35.60
2018-11-20T05:41:40.745Z,34.50
2018-11-20T05:44:28.808Z,31.80
2018-11-20T05:47:30.114Z,31.23
2018-11-20T05:50:17.838Z,27.53
2018-11-20T05:53:00.236Z,27.80
2018-11-20T05:55:58.212Z,34.67
2018-11-20T05:58:46.219Z,32.53
2018-11-20T06:01:24.492Z,31.07
2018-11-20T06:04:12.645Z,31.67
2018-11-20T06:06:55.461Z,30.30
2018-11-20T06:09:50.530Z,33.80
2018-11-20T06:12:34.212Z,28.00
2018-11-20T06:15:22.206Z,30.17
2018-11-20T06:18:11.066Z,36.00
2018-11-20T06:21:00.304Z,37.10
2018-11-20T06:23:48.472Z,51.40
2018-11-20T06:26:50.475Z,59.97
2018-11-20T06:29:38.283Z,54.97
2018-11-20T06:32:26.017Z,38.10
2018-11-20T06:35:21.146Z,57.77
2018-11-20T06:38:16.521Z,40.43
2018-11-20T06:40:57.219Z,28.90
2018-11-20T06:44:04.443Z,33.07
2018-11-20T06:47:08.913Z,32.33
2018-11-20T06:49:56.645Z,31.07
2018-11-20T06:52:44.861Z,31.83
2018-11-20T06:55:29.356Z,24.70
2018-11-20T06:58:17.387Z,26.03
2018-11-20T07:01:05.384Z,26.73
2018-11-20T07:04:09.644Z,26.90
2018-11-20T07:07:07.916Z,30.57
2018-11-20T07:09:59.855Z,25.30
2018-11-20T07:12:51.804Z,27.67
2018-11-20T07:15:39.779Z,34.10
2018-11-20T07:18:27.443Z,124.07
2018-11-20T07:21:15.514Z,43.43
2018-11-20T07:24:05.374Z,44.00
2018-11-20T07:26:55.362Z,30.20
2018-11-20T07:29:47.411Z,27.10
2018-11-20T07:32:35.189Z,24.20
2018-11-20T07:35:23.809Z,22.37
2018-11-20T07:38:13.102Z,22.77
2018-11-20T07:41:11.637Z,22.10
2018-11-20T07:44:06.128Z,19.60
2018-11-20T07:46:54.205Z,17.57
2018-11-20T07:49:40.702Z,20.17
2018-11-20T07:52:32.512Z,11.67
2018-11-20T07:55:21.812Z,9.60
2018-11-20T07:58:09.872Z,8.73
2018-11-20T08:00:53.480Z,8.30
2018-11-20T08:03:41.269Z,6.03
2018-11-20T08:06:33.216Z,6.63
2018-11-20T08:09:12.033Z,4.90
2018-11-20T08:12:19.241Z,5.47
2018-11-20T08:14:57.238Z,4.40
2018-11-20T08:17:47.623Z,6.57
2018-11-20T08:20:36.889Z,4.37
2018-11-20T08:23:26.121Z,4.13
2018-11-20T08:26:14.580Z,3.53
2018-11-20T08:29:15.790Z,4.97
2018-11-20T08:32:03.745Z,8.27
2018-11-20T08:34:52.975Z,23.43
2018-11-20T08:37:37.517Z,12.83
2018-11-20T08:40:26.733Z,6.20
2018-11-20T08:43:21.965Z,4.23
2018-11-20T08:46:09.871Z,3.63
2018-11-20T08:49:07.920Z,2.90
2018-11-20T08:52:06.437Z,3.10
2018-11-20T08:54:55.949Z,3.20
2018-11-20T08:57:56.989Z,11.50
2018-11-20T09:01:04.429Z,10.17
2018-11-20T09:03:46.559Z,3.67
2018-11-20T09:06:34.721Z,3.87
2018-11-20T09:09:26.233Z,4.13
2018-11-20T09:12:09.081Z,2.93
2018-11-20T09:15:01.013Z,4.83
2018-11-20T09:17:47.202Z,3.47
2018-11-20T09:20:35.363Z,3.10
2018-11-20T09:23:25.027Z,3.60
2018-11-20T09:26:03.920Z,3.23
2018-11-20T09:29:02.076Z,3.17
2018-11-20T09:31:50.075Z,3.30
2018-11-20T09:34:57.517Z,2.60
2018-11-20T09:37:46.216Z,2.30
2018-11-20T09:41:03.356Z,2.80
2018-11-20T09:44:21.901Z,2.90
2018-11-20T09:47:09.188Z,2.60
2018-11-20T09:50:16.479Z,3.50
2018-11-20T09:53:18.218Z,2.93
2018-11-20T09:56:05.490Z,2.57
2018-11-20T09:58:54.704Z,2.57
2018-11-20T10:01:41.879Z,3.97
2018-11-20T10:04:31.097Z,24.53
2018-11-20T10:07:12.624Z,12.60
2018-11-20T10:10:01.849Z,4.63
2018-11-20T10:12:51.117Z,3.63
2018-11-20T10:15:35.783Z,2.67
2018-11-20T10:18:15.794Z,4.10
2018-11-20T10:21:14.129Z,2.80
2018-11-20T10:24:18.513Z,2.83
2018-11-20T10:27:16.977Z,3.93
2018-11-20T10:30:04.929Z,3.80
2018-11-20T10:32:59.836Z,9.30
2018-11-20T10:35:47.477Z,11.03
2018-11-20T10:38:35.643Z,3.10
2018-11-20T10:41:23.907Z,4.37
2018-11-20T10:44:11.928Z,3.17
2018-11-20T10:47:01.154Z,4.10
2018-11-20T10:50:02.706Z,5.47
2018-11-20T10:52:50.835Z,4.00
2018-11-20T10:55:43.154Z,3.77
2018-11-20T10:58:31.350Z,4.77
2018-11-20T11:01:19.249Z,4.83
2018-11-20T11:04:07.483Z,5.50
2018-11-20T11:06:56.597Z,12.63
2018-11-20T11:09:58.041Z,66.30
2018-11-20T11:13:02.277Z,33.27
2018-11-20T11:15:51.533Z,14.27
2018-11-20T11:18:39.256Z,11.83
2018-11-20T11:21:33.384Z,14.47
2018-11-20T11:24:42.655Z,7.70
2018-11-20T11:27:30.464Z,4.50
2018-11-20T11:30:34.761Z,7.00
2018-11-20T11:33:26.747Z,23.33
2018-11-20T11:36:10.418Z,4.87
2018-11-20T11:38:56.341Z,2.60
2018-11-20T11:41:39.969Z,2.53
2018-11-20T11:44:29.164Z,14.37
2018-11-20T11:47:27.556Z,8.13
2018-11-20T11:50:32.965Z,7.90
2018-11-20T11:53:15.463Z,4.40
2018-11-20T11:56:03.448Z,5.80
2018-11-20T11:59:02.696Z,10.33
2018-11-20T12:04:39.288Z,4.83
2018-11-20T12:07:47.375Z,5.93
2018-11-20T12:10:42.341Z,4.83
2018-11-20T12:13:37.881Z,5.50
2018-11-20T12:16:47.226Z,7.33
2018-11-20T12:19:35.498Z,34.33
2018-11-20T12:22:23.553Z,68.57
2018-11-20T12:25:11.451Z,7.93
2018-11-20T12:27:59.334Z,6.57
2018-11-20T12:30:34.958Z,6.33
2018-11-20T12:33:27.526Z,8.97
2018-11-20T12:36:20.640Z,5.60
2018-11-20T12:39:12.549Z,9.77
2018-11-20T12:42:02.548Z,5.93
2018-11-20T12:44:50.039Z,7.17
2018-11-20T12:47:45.142Z,13.43
2018-11-20T12:50:29.385Z,14.80
2018-11-20T12:53:25.172Z,13.00
2018-11-20T12:56:03.917Z,10.00
2018-11-20T12:58:44.548Z,7.00
2018-11-20T13:01:49.251Z,5.60
2018-11-20T13:04:56.531Z,4.80
2018-11-20T13:07:37.856Z,5.93
2018-11-20T13:10:26.089Z,6.70
2018-11-20T13:13:27.387Z,54.80
2018-11-20T13:16:25.853Z,4.30
2018-11-20T13:19:13.650Z,5.33
2018-11-20T13:22:02.878Z,6.77
2018-11-20T13:24:46.901Z,5.00
2018-11-20T13:27:35.166Z,9.40
2018-11-20T13:30:25.772Z,5.97
2018-11-20T13:33:08.649Z,4.13
2018-11-20T13:36:03.666Z,5.13
2018-11-20T13:39:00.588Z,4.77
2018-11-20T13:42:07.779Z,5.30
2018-11-20T13:45:03.363Z,5.50
2018-11-20T13:48:01.415Z,6.40
2018-11-20T13:50:53.272Z,6.70
2018-11-20T13:53:41.022Z,5.20
2018-11-20T13:56:29.941Z,7.00
2018-11-20T13:59:31.225Z,7.53
2018-11-20T14:02:28.349Z,8.63
2018-11-20T14:05:13.563Z,5.90
2018-11-20T14:08:19.031Z,6.43
2018-11-20T14:11:14.463Z,5.80
2018-11-20T14:14:04.813Z,7.13
2018-11-20T14:16:52.920Z,7.57
2018-11-20T14:19:42.270Z,6.97
2018-11-20T14:22:40.282Z,9.13
2018-11-20T14:25:58.637Z,8.23
2018-11-20T14:28:37.717Z,14.53
2018-11-20T14:31:42.030Z,10.20
2018-11-20T14:34:21.192Z,11.50
2018-11-20T14:37:09.038Z,11.67
2018-11-20T14:40:10.450Z,7.90
2018-11-20T14:43:02.914Z,9.97
2018-11-20T14:45:55.007Z,10.53
2018-11-20T14:48:45.742Z,7.60
2018-11-20T14:51:31.194Z,11.27
2018-11-20T14:54:20.426Z,8.03
2018-11-20T14:57:15.303Z,7.63
2018-11-20T15:00:07.141Z,7.40
2018-11-20T15:02:55.077Z,6.43
2018-11-20T15:05:43.196Z,7.87
2018-11-20T15:08:31.655Z,7.30
2018-11-20T15:11:19.445Z,8.27
2018-11-20T15:14:07.704Z,7.53
2018-11-20T15:16:55.754Z,7.60
2018-11-20T15:20:00.178Z,7.03
2018-11-20T15:22:49.446Z,8.70
2018-11-20T15:25:37.496Z,8.70
2018-11-20T15:28:25.682Z,12.90
2018-11-20T15:31:13.807Z,19.97
2018-11-20T15:34:21.755Z,25.67
2018-11-20T15:37:08.161Z,31.70
2018-11-20T15:40:00.337Z,32.03
2018-11-20T15:42:49.580Z,30.97
2018-11-20T15:45:35.585Z,31.30
2018-11-20T15:48:27.883Z,30.90
2018-11-20T15:51:15.673Z,34.00
2018-11-20T15:54:04.375Z,31.43
2018-11-20T15:57:08.996Z,30.77
2018-11-20T16:00:13.556Z,33.40
2018-11-20T16:03:23.335Z,31.23
2018-11-20T16:06:05.801Z,37.20
2018-11-20T16:08:54.069Z,37.37
2018-11-20T16:11:57.243Z,47.83
2018-11-20T16:14:48.388Z,37.90
2018-11-20T16:17:44.118Z,36.90
2018-11-20T16:20:32.199Z,38.07
2018-11-20T16:23:14.345Z,33.37
2018-11-20T16:26:12.430Z,39.40
2018-11-20T16:29:11.657Z,35.87
2018-11-20T16:32:00.891Z,40.47
2018-11-20T16:34:52.844Z,40.27
2018-11-20T16:37:40.596Z,36.87
2018-11-20T16:40:28.767Z,31.03
2018-11-20T16:43:17.029Z,34.00
2018-11-20T16:46:05.115Z,35.47
2018-11-20T16:48:53.051Z,31.00
2018-11-20T16:51:34.996Z,34.23
2018-11-20T16:54:23.374Z,16.93
2018-11-20T16:57:24.895Z,15.70
2018-11-20T17:00:14.154Z,17.67
2018-11-20T17:03:02.040Z,17.37
2018-11-20T17:05:47.035Z,18.73
2018-11-20T17:08:30.837Z,16.67
2018-11-20T17:11:18.743Z,26.50
2018-11-20T17:14:07.503Z,20.77
2018-11-20T17:16:59.592Z,21.93
2018-11-20T17:19:44.373Z,20.07
2018-11-20T17:22:36.363Z,36.47
2018-11-20T17:25:36.031Z,38.40
2018-11-20T17:28:28.525Z,39.60
2018-11-20T17:31:13.952Z,47.20
2018-11-20T17:34:09.751Z,39.77
2018-11-20T17:37:14.322Z,35.43
2018-11-20T17:40:02.338Z,40.13
2018-11-20T17:42:57.356Z,35.77
2018-11-20T17:45:45.211Z,39.67
2018-11-20T17:48:27.705Z,36.83
2018-11-20T17:51:35.232Z,36.87
2018-11-20T17:54:12.579Z,26.87
2018-11-20T17:57:01.848Z,35.47
2018-11-20T17:59:57.037Z,30.60
2018-11-20T18:02:49.465Z,16.07
2018-11-20T18:05:43.649Z,13.93
2018-11-20T18:08:35.611Z,14.63
2018-11-20T18:11:23.690Z,18.63
2018-11-20T18:14:10.952Z,18.93
2018-11-20T18:17:02.792Z,20.60
2018-11-20T18:19:55.077Z,25.00
2018-11-20T18:22:44.964Z,23.70
2018-11-20T18:25:32.717Z,52.60
2018-11-20T18:28:21.943Z,27.50
2018-11-20T18:31:04.094Z,24.27
2018-11-20T18:33:53.382Z,25.57
2018-11-20T18:36:45.380Z,21.57
2018-11-20T18:39:49.833Z,42.80
2018-11-20T18:42:39.107Z,40.27
2018-11-20T18:45:34.686Z,40.43
2018-11-20T18:48:26.652Z,38.20
2018-11-20T18:51:13.771Z,42.63
2018-11-20T18:54:15.084Z,41.93
2018-11-20T18:57:07.098Z,48.53
2018-11-20T18:59:49.749Z,48.37
2018-11-20T19:02:48.034Z,46.20
2018-11-20T19:05:35.800Z,40.70
2018-11-20T19:08:40.608Z,39.63
2018-11-20T19:11:44.983Z,31.40
2018-11-20T19:14:24.094Z,28.43
2018-11-20T19:17:12.243Z,30.70
2018-11-20T19:20:04.278Z,35.67
2018-11-20T19:22:45.294Z,35.60
2018-11-20T19:25:32.582Z,33.73
2018-11-20T19:28:22.146Z,30.53
2018-11-20T19:31:20.692Z,29.67
2018-11-20T19:34:08.878Z,28.97
2018-11-20T19:36:58.671Z,24.87
2018-11-20T19:40:00.702Z,24.67
2018-11-20T19:42:55.490Z,25.87
2018-11-20T19:45:44.067Z,30.50
2018-11-20T19:48:35.887Z,26.73
2018-11-20T19:51:31.267Z,28.50
2018-11-20T19:54:20.554Z,28.30
2018-11-20T19:57:27.961Z,26.83
2018-11-20T20:00:20.212Z,26.53
2018-11-20T20:03:08.435Z,28.53
2018-11-20T20:05:56.440Z,27.53
2018-11-20T20:08:43.833Z,28.97
2018-11-20T20:11:48.344Z,32.57
2018-11-20T20:14:36.300Z,25.63
2018-11-20T20:17:24.048Z,31.17
2018-11-20T20:20:09.097Z,33.00
2018-11-20T20:22:57.122Z,29.47
2018-11-20T20:25:35.097Z,31.17
2018-11-20T20:28:36.758Z,31.13
2018-11-20T20:31:36.848Z,33.10
2018-11-20T20:34:18.186Z,29.07
2018-11-20T20:37:19.933Z,30.10
2018-11-20T20:40:09.181Z,33.67
2018-11-20T20:42:54.258Z,29.90
2018-11-20T20:45:44.381Z,34.37
2018-11-20T20:48:35.869Z,44.77
2018-11-20T20:51:15.434Z,37.57
2018-11-20T20:54:03.880Z,37.73
2018-11-20T20:57:08.472Z,31.70
2018-11-20T20:59:56.109Z,33.87
2018-11-20T21:02:41.693Z,28.83
2018-11-20T21:05:36.410Z,30.30
2018-11-20T21:08:17.486Z,33.87
2018-11-20T21:11:00.767Z,27.53
2018-11-20T21:13:49.895Z,33.17
2018-11-20T21:16:36.352Z,29.97
2018-11-20T21:19:31.564Z,32.43
2018-11-20T21:22:19.804Z,30.37
2018-11-20T21:25:04.635Z,26.93
2018-11-20T21:27:56.800Z,28.87
2018-11-20T21:30:46.092Z,29.70
2018-11-20T21:33:28.424Z,31.63
2018-11-20T21:36:07.821Z,35.50
2018-11-20T21:38:57.076Z,31.00
2018-11-20T21:41:49.806Z,29.23
2018-11-20T21:44:45.155Z,35.80
2018-11-20T21:47:33.071Z,30.70
2018-11-20T21:50:31.138Z,30.57
2018-11-20T21:53:26.022Z,29.80
2018-11-20T21:56:17.773Z,32.03
2018-11-20T21:59:05.119Z,30.77
2018-11-20T22:01:54.825Z,35.07
2018-11-20T22:04:55.869Z,35.40
2018-11-20T22:07:41.121Z,31.93
2018-11-20T22:10:21.609Z,31.10
2018-11-20T22:13:04.829Z,33.60
2018-11-20T22:15:52.841Z,30.83
2018-11-20T22:18:41.063Z,34.37
2018-11-20T22:21:33.140Z,35.20
2018-11-20T22:24:28.552Z,37.00
2018-11-20T22:27:10.799Z,35.40
2018-11-20T22:30:18.110Z,32.53
2018-11-20T22:33:07.347Z,32.67
2018-11-20T22:35:59.273Z,38.03
2018-11-20T22:39:00.356Z,41.97
2018-11-20T22:41:52.238Z,46.33
2018-11-20T22:44:40.016Z,38.90
2018-11-20T22:47:32.267Z,42.83
2018-11-20T22:50:21.490Z,48.07
2018-11-20T22:53:09.273Z,49.40
2018-11-20T22:55:57.298Z,46.73
2018-11-20T22:58:47.907Z,48.63
2018-11-20T23:01:35.829Z,54.47
2018-11-20T23:04:24.131Z,49.67
2018-11-20T23:07:13.357Z,55.70
2018-11-20T23:09:43.577Z,58.97
2018-11-20T23:12:13.944Z,59.60
2018-11-20T23:14:44.154Z,58.83
2018-11-20T23:17:14.419Z,55.70
2018-11-20T23:19:44.619Z,63.90
2018-11-20T23:22:14.860Z,58.33
2018-11-20T23:24:45.103Z,53.33
2018-11-20T23:27:16.635Z,57.13
2018-11-20T23:29:45.594Z,54.33
2018-11-20T23:32:15.901Z,56.20
2018-11-20T23:34:46.143Z,55.83
2018-11-20T23:37:16.415Z,55.70
2018-11-20T23:39:46.610Z,50.67
2018-11-20T23:42:16.859Z,53.43
2018-11-20T23:44:47.195Z,50.73
2018-11-20T23:47:17.422Z,51.60
2018-11-20T23:49:47.619Z,48.00
2018-11-20T23:52:17.866Z,48.83
2018-11-20T23:54:48.116Z,49.83
2018-11-20T23:57:18.318Z,46.50
2018-11-20T23:59:48.530Z,44.37
